EIGRN EICK-EIWT
Flight info
| Callsign | EIGRN |
|---|---|
| Flight time | N/A |
| Altitude | 5000 |
| Route | VFR |
| Aircraft | DA42/L-SDFGRY/C |
Departure
| Time | 2026-04-27 08:03 |
|---|---|
| Airport | Cork International Airport (EICK) |
Arrival
| Time | N/A |
|---|---|
| Airport | EIWT |
| Time | Latitude | Longitude | Altitude | Speed | Heading |
|---|---|---|---|---|---|
| 2026-04-27 08:00 | 51.83861 | -8.48575 | 499 ft | 0 kts | 63° |
| 2026-04-27 08:01 | 51.83852 | -8.48574 | 499 ft | 6 kts | 232° |
| 2026-04-27 08:01 | 51.83823 | -8.48646 | 499 ft | 8 kts | 241° |
| 2026-04-27 08:02 | 51.83802 | -8.48731 | 499 ft | 8 kts | 249° |
| 2026-04-27 08:02 | 51.83780 | -8.48827 | 499 ft | 9 kts | 248° |
| 2026-04-27 08:02 | 51.83800 | -8.48919 | 499 ft | 25 kts | 338° |
| 2026-04-27 08:02 | 51.84118 | -8.49111 | 520 ft | 64 kts | 339° |
| 2026-04-27 08:03 | 51.84529 | -8.49361 | 713 ft | 69 kts | 336° |
| 2026-04-27 08:03 | 51.84967 | -8.49733 | 991 ft | 70 kts | 330° |
| 2026-04-27 08:03 | 51.85414 | -8.50067 | 1279 ft | 73 kts | 337° |
| 2026-04-27 08:03 | 51.85932 | -8.50469 | 1445 ft | 91 kts | 337° |
| 2026-04-27 08:04 | 51.86505 | -8.50939 | 1723 ft | 92 kts | 336° |
| 2026-04-27 08:04 | 51.87072 | -8.51420 | 2023 ft | 92 kts | 336° |
| 2026-04-27 08:04 | 51.87646 | -8.51920 | 2210 ft | 102 kts | 336° |
| 2026-04-27 08:04 | 51.88347 | -8.52508 | 2133 ft | 118 kts | 337° |
| 2026-04-27 08:05 | 51.89082 | -8.53081 | 1895 ft | 116 kts | 343° |
| 2026-04-27 08:05 | 51.89858 | -8.53360 | 1654 ft | 113 kts | 353° |
| 2026-04-27 08:05 | 51.90597 | -8.53555 | 1577 ft | 100 kts | 353° |
| 2026-04-27 08:05 | 51.91276 | -8.53723 | 1468 ft | 100 kts | 353° |
| 2026-04-27 08:06 | 51.91964 | -8.53885 | 1336 ft | 102 kts | 353° |
| 2026-04-27 08:06 | 51.92690 | -8.54043 | 1215 ft | 108 kts | 353° |
| 2026-04-27 08:06 | 51.93424 | -8.54184 | 1197 ft | 104 kts | 353° |
| 2026-04-27 08:06 | 51.94134 | -8.54320 | 1188 ft | 102 kts | 353° |
| 2026-04-27 08:07 | 51.94827 | -8.54387 | 1191 ft | 99 kts | 358° |
| 2026-04-27 08:07 | 51.95517 | -8.54250 | 1192 ft | 101 kts | 7° |
| 2026-04-27 08:07 | 51.96218 | -8.54082 | 1198 ft | 105 kts | 6° |
| 2026-04-27 08:07 | 51.96964 | -8.53896 | 1200 ft | 111 kts | 7° |
| 2026-04-27 08:08 | 51.97748 | -8.53696 | 1188 ft | 116 kts | 7° |
| 2026-04-27 08:08 | 51.98545 | -8.53448 | 1180 ft | 119 kts | 19° |
| 2026-04-27 08:08 | 51.99158 | -8.52543 | 1189 ft | 123 kts | 49° |
| 2026-04-27 08:08 | 51.99560 | -8.51298 | 1189 ft | 128 kts | 66° |
| 2026-04-27 08:09 | 51.99836 | -8.49918 | 1187 ft | 129 kts | 68° |
| 2026-04-27 08:09 | 52.00096 | -8.48537 | 1242 ft | 125 kts | 68° |
| 2026-04-27 08:09 | 52.00392 | -8.47275 | 1359 ft | 119 kts | 61° |
| 2026-04-27 08:09 | 52.00718 | -8.46083 | 1481 ft | 114 kts | 61° |
| 2026-04-27 08:10 | 52.01052 | -8.44893 | 1493 ft | 119 kts | 61° |
| 2026-04-27 08:10 | 52.01420 | -8.43614 | 1501 ft | 131 kts | 60° |
| 2026-04-27 08:10 | 52.01813 | -8.42242 | 1508 ft | 136 kts | 61° |
| 2026-04-27 08:10 | 52.02224 | -8.40827 | 1507 ft | 141 kts | 61° |
| 2026-04-27 08:11 | 52.02654 | -8.39375 | 1518 ft | 144 kts | 60° |
| 2026-04-27 08:11 | 52.03087 | -8.37904 | 1508 ft | 145 kts | 62° |
| 2026-04-27 08:11 | 52.03520 | -8.36419 | 1509 ft | 145 kts | 62° |
| 2026-04-27 08:11 | 52.03950 | -8.34949 | 1516 ft | 143 kts | 61° |
| 2026-04-27 08:12 | 52.04286 | -8.33424 | 1517 ft | 145 kts | 75° |
| 2026-04-27 08:12 | 52.04467 | -8.31819 | 1512 ft | 143 kts | 76° |
| 2026-04-27 08:12 | 52.04627 | -8.30215 | 1510 ft | 144 kts | 77° |
| 2026-04-27 08:12 | 52.04791 | -8.28609 | 1512 ft | 144 kts | 77° |
| 2026-04-27 08:13 | 52.04955 | -8.27009 | 1513 ft | 144 kts | 77° |
| 2026-04-27 08:13 | 52.05121 | -8.25398 | 1513 ft | 145 kts | 77° |
| 2026-04-27 08:13 | 52.05288 | -8.23788 | 1591 ft | 139 kts | 77° |
| 2026-04-27 08:13 | 52.05448 | -8.22262 | 1681 ft | 136 kts | 77° |
| 2026-04-27 08:14 | 52.05585 | -8.20860 | 2051 ft | 114 kts | 76° |
| 2026-04-27 08:14 | 52.05676 | -8.19678 | 2389 ft | 103 kts | 77° |
| 2026-04-27 08:14 | 52.05762 | -8.18503 | 2616 ft | 106 kts | 77° |
| 2026-04-27 08:14 | 52.05854 | -8.17320 | 2962 ft | 106 kts | 77° |
| 2026-04-27 08:15 | 52.05965 | -8.15992 | 3006 ft | 131 kts | 77° |
| 2026-04-27 08:15 | 52.06102 | -8.14436 | 3014 ft | 146 kts | 77° |
| 2026-04-27 08:15 | 52.06256 | -8.12760 | 3012 ft | 153 kts | 77° |
| 2026-04-27 08:15 | 52.06419 | -8.11032 | 3013 ft | 156 kts | 77° |
| 2026-04-27 08:16 | 52.06586 | -8.09274 | 3010 ft | 158 kts | 77° |
| 2026-04-27 08:16 | 52.06746 | -8.07593 | 3264 ft | 146 kts | 77° |
| 2026-04-27 08:16 | 52.06888 | -8.06024 | 3565 ft | 136 kts | 77° |
| 2026-04-27 08:16 | 52.07024 | -8.04547 | 3862 ft | 129 kts | 77° |
| 2026-04-27 08:17 | 52.07162 | -8.03077 | 3992 ft | 139 kts | 77° |
| 2026-04-27 08:17 | 52.07320 | -8.01450 | 4001 ft | 152 kts | 77° |
| 2026-04-27 08:17 | 52.07498 | -7.99726 | 4004 ft | 157 kts | 77° |
| 2026-04-27 08:17 | 52.07731 | -7.97972 | 4000 ft | 160 kts | 64° |
| 2026-04-27 08:18 | 52.08246 | -7.96384 | 4004 ft | 160 kts | 57° |
| 2026-04-27 08:18 | 52.08812 | -7.94815 | 4000 ft | 161 kts | 54° |
| 2026-04-27 08:18 | 52.09509 | -7.93406 | 4000 ft | 159 kts | 44° |
| 2026-04-27 08:18 | 52.10293 | -7.92127 | 4005 ft | 160 kts | 42° |
| 2026-04-27 08:19 | 52.11093 | -7.90859 | 4007 ft | 160 kts | 41° |
| 2026-04-27 08:19 | 52.11899 | -7.89606 | 4004 ft | 160 kts | 42° |
| 2026-04-27 08:19 | 52.12694 | -7.88345 | 4003 ft | 160 kts | 43° |
| 2026-04-27 08:19 | 52.13313 | -7.86859 | 4008 ft | 163 kts | 69° |
| 2026-04-27 08:20 | 52.13526 | -7.85053 | 4007 ft | 163 kts | 79° |
| 2026-04-27 08:20 | 52.13645 | -7.83229 | 4008 ft | 161 kts | 80° |
| 2026-04-27 08:20 | 52.13751 | -7.81406 | 4013 ft | 162 kts | 81° |
| 2026-04-27 08:20 | 52.13939 | -7.79608 | 4008 ft | 160 kts | 73° |
| 2026-04-27 08:21 | 52.14189 | -7.77835 | 4005 ft | 160 kts | 73° |
| 2026-04-27 08:21 | 52.14431 | -7.76078 | 4009 ft | 157 kts | 71° |
| 2026-04-27 08:21 | 52.14763 | -7.74378 | 4005 ft | 158 kts | 66° |
| 2026-04-27 08:21 | 52.15120 | -7.72676 | 4006 ft | 159 kts | 68° |
| 2026-04-27 08:22 | 52.15490 | -7.71001 | 4006 ft | 160 kts | 66° |
| 2026-04-27 08:22 | 52.15854 | -7.69293 | 4011 ft | 159 kts | 66° |
| 2026-04-27 08:22 | 52.16218 | -7.67572 | 4004 ft | 162 kts | 69° |
| 2026-04-27 08:22 | 52.16586 | -7.65843 | 4001 ft | 161 kts | 67° |
| 2026-04-27 08:23 | 52.16967 | -7.64129 | 3996 ft | 161 kts | 67° |
| 2026-04-27 08:23 | 52.17390 | -7.62460 | 4000 ft | 159 kts | 58° |
| 2026-04-27 08:23 | 52.17924 | -7.60885 | 3996 ft | 157 kts | 58° |
| 2026-04-27 08:23 | 52.18471 | -7.59345 | 3992 ft | 156 kts | 54° |
| 2026-04-27 08:24 | 52.19230 | -7.58106 | 4004 ft | 155 kts | 37° |
| 2026-04-27 08:24 | 52.20071 | -7.56993 | 4003 ft | 157 kts | 38° |
| 2026-04-27 08:24 | 52.20915 | -7.55881 | 4001 ft | 156 kts | 37° |
| 2026-04-27 08:24 | 52.21749 | -7.54778 | 3995 ft | 152 kts | 37° |
| 2026-04-27 08:25 | 52.22571 | -7.53685 | 4005 ft | 154 kts | 37° |
| 2026-04-27 08:25 | 52.23392 | -7.52593 | 4000 ft | 151 kts | 36° |
| 2026-04-27 08:25 | 52.24201 | -7.51499 | 4005 ft | 152 kts | 38° |
| 2026-04-27 08:25 | 52.25054 | -7.50465 | 4008 ft | 154 kts | 30° |
| 2026-04-27 08:26 | 52.25994 | -7.49613 | 4006 ft | 155 kts | 27° |
| 2026-04-27 08:26 | 52.26957 | -7.48782 | 3991 ft | 157 kts | 27° |
| 2026-04-27 08:26 | 52.27913 | -7.47939 | 4000 ft | 155 kts | 25° |
| 2026-04-27 08:26 | 52.28901 | -7.47215 | 3991 ft | 156 kts | 22° |
| 2026-04-27 08:27 | 52.29893 | -7.46506 | 3988 ft | 156 kts | 22° |
| 2026-04-27 08:27 | 52.30891 | -7.45794 | 3993 ft | 157 kts | 22° |
| 2026-04-27 08:27 | 52.31896 | -7.45069 | 3997 ft | 158 kts | 22° |
| 2026-04-27 08:27 | 52.32908 | -7.44341 | 3995 ft | 159 kts | 22° |
| 2026-04-27 08:28 | 52.33923 | -7.43617 | 4000 ft | 158 kts | 22° |
| 2026-04-27 08:28 | 52.34939 | -7.42913 | 4003 ft | 158 kts | 22° |
| 2026-04-27 08:28 | 52.35953 | -7.42197 | 4005 ft | 159 kts | 22° |
| 2026-04-27 08:28 | 52.36964 | -7.41485 | 4000 ft | 158 kts | 22° |
| 2026-04-27 08:29 | 52.37958 | -7.40789 | 4002 ft | 158 kts | 22° |
| 2026-04-27 08:29 | 52.38967 | -7.40088 | 4000 ft | 157 kts | 21° |
| 2026-04-27 08:29 | 52.39977 | -7.39376 | 3996 ft | 158 kts | 22° |
| 2026-04-27 08:29 | 52.40982 | -7.38647 | 3995 ft | 157 kts | 23° |
| 2026-04-27 08:30 | 52.41982 | -7.37941 | 4003 ft | 156 kts | 22° |
| 2026-04-27 08:30 | 52.42986 | -7.37241 | 4000 ft | 157 kts | 22° |
| 2026-04-27 08:30 | 52.43988 | -7.36542 | 4004 ft | 156 kts | 22° |
| 2026-04-27 08:30 | 52.44992 | -7.35830 | 4002 ft | 157 kts | 22° |
| 2026-04-27 08:31 | 52.46003 | -7.35131 | 4004 ft | 158 kts | 22° |
| 2026-04-27 08:31 | 52.47015 | -7.34419 | 4004 ft | 159 kts | 22° |
| 2026-04-27 08:31 | 52.48039 | -7.33722 | 4002 ft | 159 kts | 19° |
| 2026-04-27 08:31 | 52.49098 | -7.33216 | 4008 ft | 158 kts | 14° |
| 2026-04-27 08:32 | 52.50162 | -7.32783 | 4001 ft | 157 kts | 13° |
| 2026-04-27 08:32 | 52.51219 | -7.32344 | 3999 ft | 156 kts | 14° |
| 2026-04-27 08:32 | 52.52280 | -7.31918 | 4006 ft | 157 kts | 12° |
| 2026-04-27 08:32 | 52.53347 | -7.31500 | 4003 ft | 158 kts | 13° |
| 2026-04-27 08:33 | 52.54410 | -7.31065 | 4008 ft | 158 kts | 13° |
| 2026-04-27 08:33 | 52.55473 | -7.30621 | 4008 ft | 158 kts | 13° |
| 2026-04-27 08:33 | 52.56542 | -7.30164 | 4005 ft | 158 kts | 13° |
| 2026-04-27 08:33 | 52.57609 | -7.29717 | 4012 ft | 158 kts | 13° |
| 2026-04-27 08:34 | 52.58679 | -7.29261 | 4003 ft | 158 kts | 13° |
| 2026-04-27 08:34 | 52.59741 | -7.28817 | 4003 ft | 157 kts | 13° |
| 2026-04-27 08:34 | 52.60783 | -7.28381 | 4008 ft | 157 kts | 13° |
| 2026-04-27 08:34 | 52.61842 | -7.27939 | 4002 ft | 157 kts | 13° |
| 2026-04-27 08:35 | 52.62897 | -7.27495 | 4003 ft | 156 kts | 13° |
| 2026-04-27 08:35 | 52.63954 | -7.27046 | 4010 ft | 158 kts | 13° |
| 2026-04-27 08:35 | 52.65021 | -7.26597 | 4009 ft | 158 kts | 13° |
| 2026-04-27 08:35 | 52.66090 | -7.26154 | 4009 ft | 159 kts | 13° |
| 2026-04-27 08:36 | 52.67160 | -7.25712 | 4010 ft | 158 kts | 13° |
| 2026-04-27 08:36 | 52.68228 | -7.25267 | 4005 ft | 158 kts | 13° |
| 2026-04-27 08:36 | 52.68946 | -7.24971 | 4011 ft | 157 kts | 13° |
| 2026-04-27 08:36 | 52.70010 | -7.24530 | 4001 ft | 156 kts | 13° |
| 2026-04-27 08:37 | 52.71068 | -7.24093 | 4010 ft | 158 kts | 13° |
| 2026-04-27 08:37 | 52.72134 | -7.23647 | 4000 ft | 158 kts | 13° |
| 2026-04-27 08:37 | 52.73176 | -7.23195 | 4010 ft | 157 kts | 14° |
| 2026-04-27 08:37 | 52.74230 | -7.22767 | 4006 ft | 156 kts | 13° |
| 2026-04-27 08:38 | 52.75284 | -7.22330 | 4011 ft | 156 kts | 13° |
| 2026-04-27 08:38 | 52.76340 | -7.21886 | 4004 ft | 156 kts | 13° |
| 2026-04-27 08:38 | 52.77394 | -7.21443 | 4010 ft | 158 kts | 13° |
| 2026-04-27 08:38 | 52.78464 | -7.21010 | 4005 ft | 158 kts | 13° |
| 2026-04-27 08:39 | 52.79529 | -7.20553 | 4004 ft | 159 kts | 13° |
| 2026-04-27 08:39 | 52.80595 | -7.20089 | 4000 ft | 158 kts | 13° |
| 2026-04-27 08:39 | 52.81661 | -7.19634 | 4001 ft | 158 kts | 13° |
| 2026-04-27 08:39 | 52.82720 | -7.19174 | 4007 ft | 157 kts | 13° |
| 2026-04-27 08:40 | 52.83799 | -7.18710 | 3920 ft | 163 kts | 13° |
| 2026-04-27 08:40 | 52.84926 | -7.18220 | 3713 ft | 171 kts | 14° |
| 2026-04-27 08:40 | 52.86083 | -7.17725 | 3513 ft | 172 kts | 13° |
| 2026-04-27 08:40 | 52.87244 | -7.17230 | 3307 ft | 174 kts | 14° |
| 2026-04-27 08:41 | 52.88412 | -7.16735 | 3101 ft | 172 kts | 13° |
| 2026-04-27 08:41 | 52.89579 | -7.16236 | 2907 ft | 174 kts | 13° |
| 2026-04-27 08:41 | 52.90746 | -7.15730 | 2688 ft | 172 kts | 13° |
| 2026-04-27 08:41 | 52.91898 | -7.15226 | 2519 ft | 171 kts | 13° |
| 2026-04-27 08:42 | 52.93015 | -7.14751 | 2507 ft | 162 kts | 13° |
| 2026-04-27 08:42 | 52.94092 | -7.14305 | 2499 ft | 158 kts | 13° |
| 2026-04-27 08:42 | 52.95150 | -7.13865 | 2499 ft | 157 kts | 13° |
| 2026-04-27 08:42 | 52.96200 | -7.13422 | 2496 ft | 155 kts | 13° |
| 2026-04-27 08:43 | 52.97237 | -7.12977 | 2494 ft | 154 kts | 13° |
| 2026-04-27 08:43 | 52.98275 | -7.12530 | 2490 ft | 154 kts | 13° |
| 2026-04-27 08:43 | 52.99308 | -7.12090 | 2497 ft | 153 kts | 13° |
| 2026-04-27 08:43 | 53.00341 | -7.11645 | 2499 ft | 154 kts | 13° |
| 2026-04-27 08:44 | 53.01375 | -7.11200 | 2510 ft | 153 kts | 13° |
| 2026-04-27 08:44 | 53.02404 | -7.10761 | 2505 ft | 152 kts | 13° |
| 2026-04-27 08:44 | 53.03435 | -7.10330 | 2508 ft | 153 kts | 13° |
| 2026-04-27 08:44 | 53.04464 | -7.09891 | 2500 ft | 153 kts | 13° |
| 2026-04-27 08:45 | 53.05497 | -7.09442 | 2500 ft | 154 kts | 13° |
| 2026-04-27 08:45 | 53.06535 | -7.08995 | 2498 ft | 154 kts | 13° |
| 2026-04-27 08:45 | 53.07578 | -7.08553 | 2501 ft | 155 kts | 13° |
| 2026-04-27 08:45 | 53.08623 | -7.08105 | 2500 ft | 155 kts | 13° |
| 2026-04-27 08:46 | 53.09668 | -7.07662 | 2501 ft | 155 kts | 13° |
| 2026-04-27 08:46 | 53.10709 | -7.07213 | 2497 ft | 154 kts | 13° |
| 2026-04-27 08:46 | 53.11740 | -7.06770 | 2501 ft | 154 kts | 13° |
| 2026-04-27 08:46 | 53.12777 | -7.06319 | 2501 ft | 154 kts | 13° |
| 2026-04-27 08:47 | 53.13811 | -7.05872 | 2496 ft | 154 kts | 13° |
| 2026-04-27 08:47 | 53.14850 | -7.05422 | 2503 ft | 155 kts | 13° |
| 2026-04-27 08:47 | 53.15897 | -7.04976 | 2495 ft | 155 kts | 13° |
| 2026-04-27 08:47 | 53.16939 | -7.04526 | 2496 ft | 155 kts | 13° |
| 2026-04-27 08:48 | 53.17985 | -7.04076 | 2499 ft | 155 kts | 13° |
| 2026-04-27 08:48 | 53.19027 | -7.03621 | 2509 ft | 156 kts | 13° |
| 2026-04-27 08:48 | 53.20077 | -7.03163 | 2499 ft | 156 kts | 13° |
| 2026-04-27 08:48 | 53.21109 | -7.02711 | 2499 ft | 156 kts | 14° |
| 2026-04-27 08:49 | 53.22158 | -7.02256 | 2498 ft | 156 kts | 13° |
| 2026-04-27 08:49 | 53.23207 | -7.01808 | 2495 ft | 155 kts | 13° |
| 2026-04-27 08:49 | 53.24250 | -7.01357 | 2506 ft | 155 kts | 13° |
| 2026-04-27 08:49 | 53.25298 | -7.00895 | 2496 ft | 155 kts | 13° |
| 2026-04-27 08:50 | 53.26342 | -7.00433 | 2496 ft | 155 kts | 13° |
| 2026-04-27 08:50 | 53.27384 | -6.99973 | 2495 ft | 155 kts | 13° |
| 2026-04-27 08:50 | 53.28422 | -6.99517 | 2493 ft | 154 kts | 13° |
| 2026-04-27 08:50 | 53.29455 | -6.99059 | 2495 ft | 154 kts | 13° |
| 2026-04-27 08:51 | 53.30492 | -6.98601 | 2493 ft | 154 kts | 13° |
| 2026-04-27 08:51 | 53.31529 | -6.98145 | 2494 ft | 154 kts | 13° |
| 2026-04-27 08:51 | 53.32566 | -6.97683 | 2489 ft | 155 kts | 13° |
| 2026-04-27 08:51 | 53.33637 | -6.97211 | 2335 ft | 162 kts | 14° |
| 2026-04-27 08:52 | 53.34743 | -6.96724 | 2178 ft | 166 kts | 13° |
| 2026-04-27 08:52 | 53.35867 | -6.96232 | 2014 ft | 168 kts | 13° |
| 2026-04-27 08:52 | 53.36860 | -6.95287 | 1996 ft | 165 kts | 40° |
| 2026-04-27 08:52 | 53.37660 | -6.93943 | 1996 ft | 161 kts | 44° |
| 2026-04-27 08:53 | 53.38426 | -6.92588 | 2000 ft | 160 kts | 44° |
| 2026-04-27 08:53 | 53.39184 | -6.91243 | 1999 ft | 158 kts | 44° |
| 2026-04-27 08:53 | 53.39936 | -6.89905 | 1996 ft | 157 kts | 44° |
| 2026-04-27 08:53 | 53.40684 | -6.88575 | 1996 ft | 157 kts | 44° |
| 2026-04-27 08:54 | 53.41429 | -6.87244 | 1992 ft | 157 kts | 44° |
| 2026-04-27 08:54 | 53.42148 | -6.85868 | 1989 ft | 158 kts | 52° |
| 2026-04-27 08:54 | 53.42666 | -6.84235 | 1989 ft | 160 kts | 64° |
| 2026-04-27 08:54 | 53.43097 | -6.82519 | 1987 ft | 159 kts | 64° |
| 2026-04-27 08:55 | 53.43331 | -6.80710 | 1986 ft | 162 kts | 85° |
| 2026-04-27 08:55 | 53.43344 | -6.78821 | 1988 ft | 162 kts | 87° |
| 2026-04-27 08:55 | 53.43335 | -6.76928 | 1986 ft | 162 kts | 88° |
| 2026-04-27 08:55 | 53.43328 | -6.75028 | 1985 ft | 163 kts | 87° |
| 2026-04-27 08:56 | 53.43322 | -6.73139 | 1987 ft | 162 kts | 87° |
| 2026-04-27 08:56 | 53.43314 | -6.71239 | 1986 ft | 163 kts | 88° |
| 2026-04-27 08:56 | 53.43309 | -6.69343 | 1989 ft | 163 kts | 87° |
| 2026-04-27 08:56 | 53.43293 | -6.67446 | 1988 ft | 163 kts | 89° |
| 2026-04-27 08:57 | 53.42744 | -6.63785 | 1984 ft | 168 kts | 124° |
| 2026-04-27 08:57 | 53.42010 | -6.62246 | 1984 ft | 169 kts | 127° |
| 2026-04-27 08:57 | 53.41256 | -6.60736 | 1984 ft | 169 kts | 128° |
| 2026-04-27 08:58 | 53.40486 | -6.59245 | 1980 ft | 169 kts | 131° |
| 2026-04-27 08:58 | 53.39667 | -6.57825 | 1980 ft | 169 kts | 132° |
| 2026-04-27 08:58 | 53.38862 | -6.56387 | 1981 ft | 169 kts | 128° |
| 2026-04-27 08:58 | 53.38137 | -6.54833 | 1984 ft | 169 kts | 124° |
| 2026-04-27 08:59 | 53.37353 | -6.53399 | 1938 ft | 169 kts | 135° |
| 2026-04-27 08:59 | 53.36513 | -6.52083 | 1779 ft | 163 kts | 133° |
| 2026-04-27 08:59 | 53.35730 | -6.50744 | 1621 ft | 160 kts | 132° |
| 2026-04-27 08:59 | 53.34959 | -6.49418 | 1469 ft | 157 kts | 131° |
| 2026-04-27 09:00 | 53.34426 | -6.47942 | 1392 ft | 139 kts | 98° |
| 2026-04-27 09:00 | 53.34479 | -6.46430 | 1264 ft | 128 kts | 75° |
| 2026-04-27 09:00 | 53.34868 | -6.45205 | 1103 ft | 117 kts | 21° |
| 2026-04-27 09:00 | 53.35535 | -6.45485 | 920 ft | 100 kts | 310° |
| 2026-04-27 09:01 | 53.35752 | -6.46425 | 679 ft | 82 kts | 278° |
| 2026-04-27 09:01 | 53.35666 | -6.47333 | 365 ft | 78 kts | 248° |
| 2026-04-27 09:01 | 53.35447 | -6.48122 | 170 ft | 70 kts | 248° |
| 2026-04-27 09:01 | 53.35235 | -6.48814 | 158 ft | 55 kts | 243° |
| 2026-04-27 09:02 | 53.35133 | -6.49153 | 158 ft | 17 kts | 240° |
| 2026-04-27 09:02 | 53.35158 | -6.49230 | 157 ft | 9 kts | 338° |
| 2026-04-27 09:02 | 53.35214 | -6.49251 | 157 ft | 9 kts | 9° |
| 2026-04-27 09:02 | 53.35272 | -6.49210 | 157 ft | 10 kts | 26° |
| 2026-04-27 09:03 | 53.35332 | -6.49155 | 157 ft | 10 kts | 27° |
| 2026-04-27 09:03 | 53.35394 | -6.49098 | 157 ft | 10 kts | 30° |
| 2026-04-27 09:03 | 53.35460 | -6.49040 | 157 ft | 11 kts | 24° |
| 2026-04-27 09:03 | 53.35517 | -6.48957 | 156 ft | 11 kts | 55° |
| 2026-04-27 09:04 | 53.35568 | -6.48858 | 156 ft | 12 kts | 22° |
| 2026-04-27 09:04 | 53.35637 | -6.48863 | 156 ft | 8 kts | 70° |
| 2026-04-27 09:04 | 53.35633 | -6.48853 | 156 ft | 0 kts | 143° |